sensor_id;sensor_type;location;lat;lon;timestamp;P1;durP1;ratioP1;P2;durP2;ratioP2
46723;SDS011;32463;48.298;11.620;2024-03-08T00:04:02;20.83;;;7.85;;
46723;SDS011;32463;48.298;11.620;2024-03-08T00:06:29;20.38;;;8.65;;
46723;SDS011;32463;48.298;11.620;2024-03-08T00:08:56;19.48;;;8.60;;
46723;SDS011;32463;48.298;11.620;2024-03-08T00:13:51;18.67;;;8.35;;
46723;SDS011;32463;48.298;11.620;2024-03-08T00:16:18;18.52;;;7.93;;
46723;SDS011;32463;48.298;11.620;2024-03-08T00:18:45;19.60;;;8.48;;
46723;SDS011;32463;48.298;11.620;2024-03-08T00:21:12;19.73;;;8.50;;
46723;SDS011;32463;48.298;11.620;2024-03-08T00:23:40;18.20;;;8.90;;
46723;SDS011;32463;48.298;11.620;2024-03-08T00:26:07;21.48;;;8.50;;
46723;SDS011;32463;48.298;11.620;2024-03-08T00:28:33;18.17;;;9.57;;
46723;SDS011;32463;48.298;11.620;2024-03-08T00:31:00;16.80;;;9.02;;
46723;SDS011;32463;48.298;11.620;2024-03-08T00:33:27;19.98;;;8.20;;
46723;SDS011;32463;48.298;11.620;2024-03-08T00:35:54;25.30;;;9.25;;
46723;SDS011;32463;48.298;11.620;2024-03-08T00:38:20;20.42;;;8.25;;
46723;SDS011;32463;48.298;11.620;2024-03-08T00:40:47;18.58;;;8.43;;
46723;SDS011;32463;48.298;11.620;2024-03-08T00:45:40;18.83;;;7.80;;
46723;SDS011;32463;48.298;11.620;2024-03-08T00:48:08;19.33;;;9.02;;
46723;SDS011;32463;48.298;11.620;2024-03-08T00:50:36;18.33;;;7.95;;
46723;SDS011;32463;48.298;11.620;2024-03-08T00:53:02;17.95;;;8.45;;
46723;SDS011;32463;48.298;11.620;2024-03-08T00:55:29;19.52;;;9.18;;
46723;SDS011;32463;48.298;11.620;2024-03-08T00:57:56;18.50;;;8.43;;
46723;SDS011;32463;48.298;11.620;2024-03-08T01:02:49;19.33;;;8.85;;
46723;SDS011;32463;48.298;11.620;2024-03-08T01:07:42;16.40;;;8.20;;
46723;SDS011;32463;48.298;11.620;2024-03-08T01:10:11;18.45;;;7.43;;
46723;SDS011;32463;48.298;11.620;2024-03-08T01:12:38;22.15;;;9.13;;
46723;SDS011;32463;48.298;11.620;2024-03-08T01:15:05;20.45;;;7.40;;
46723;SDS011;32463;48.298;11.620;2024-03-08T01:17:32;19.77;;;8.18;;
46723;SDS011;32463;48.298;11.620;2024-03-08T01:22:25;16.77;;;7.88;;
46723;SDS011;32463;48.298;11.620;2024-03-08T01:24:53;15.90;;;8.43;;
46723;SDS011;32463;48.298;11.620;2024-03-08T01:29:46;19.27;;;8.45;;
46723;SDS011;32463;48.298;11.620;2024-03-08T01:32:13;18.30;;;8.38;;
46723;SDS011;32463;48.298;11.620;2024-03-08T01:34:40;23.75;;;10.02;;
46723;SDS011;32463;48.298;11.620;2024-03-08T01:37:07;20.77;;;8.93;;
46723;SDS011;32463;48.298;11.620;2024-03-08T01:39:34;20.20;;;8.90;;
46723;SDS011;32463;48.298;11.620;2024-03-08T01:44:27;17.50;;;7.25;;
46723;SDS011;32463;48.298;11.620;2024-03-08T01:49:22;18.15;;;8.00;;
46723;SDS011;32463;48.298;11.620;2024-03-08T01:51:50;18.85;;;9.68;;
46723;SDS011;32463;48.298;11.620;2024-03-08T01:54:19;17.63;;;8.10;;
46723;SDS011;32463;48.298;11.620;2024-03-08T01:56:46;18.25;;;8.35;;
46723;SDS011;32463;48.298;11.620;2024-03-08T01:59:13;19.55;;;8.93;;
46723;SDS011;32463;48.298;11.620;2024-03-08T02:01:40;21.30;;;10.02;;
46723;SDS011;32463;48.298;11.620;2024-03-08T02:04:07;20.48;;;9.10;;
46723;SDS011;32463;48.298;11.620;2024-03-08T02:09:00;18.35;;;8.00;;
46723;SDS011;32463;48.298;11.620;2024-03-08T02:11:30;21.00;;;9.23;;
46723;SDS011;32463;48.298;11.620;2024-03-08T02:13:58;23.30;;;10.07;;
46723;SDS011;32463;48.298;11.620;2024-03-08T02:18:51;22.88;;;10.23;;
46723;SDS011;32463;48.298;11.620;2024-03-08T02:23:44;20.15;;;9.27;;
46723;SDS011;32463;48.298;11.620;2024-03-08T02:26:11;23.25;;;9.95;;
46723;SDS011;32463;48.298;11.620;2024-03-08T02:31:04;18.40;;;7.82;;
46723;SDS011;32463;48.298;11.620;2024-03-08T02:33:33;22.15;;;9.70;;
46723;SDS011;32463;48.298;11.620;2024-03-08T02:36:00;22.88;;;10.38;;
46723;SDS011;32463;48.298;11.620;2024-03-08T02:38:27;20.92;;;10.25;;
46723;SDS011;32463;48.298;11.620;2024-03-08T02:43:21;21.08;;;10.15;;
46723;SDS011;32463;48.298;11.620;2024-03-08T02:45:49;23.58;;;9.43;;
46723;SDS011;32463;48.298;11.620;2024-03-08T02:48:17;21.52;;;10.32;;
46723;SDS011;32463;48.298;11.620;2024-03-08T02:50:46;26.35;;;10.98;;
46723;SDS011;32463;48.298;11.620;2024-03-08T02:53:13;26.65;;;10.93;;
46723;SDS011;32463;48.298;11.620;2024-03-08T02:55:40;23.77;;;10.77;;
46723;SDS011;32463;48.298;11.620;2024-03-08T02:58:07;26.67;;;11.27;;
46723;SDS011;32463;48.298;11.620;2024-03-08T03:00:34;24.27;;;10.65;;
46723;SDS011;32463;48.298;11.620;2024-03-08T03:05:28;23.92;;;10.45;;
46723;SDS011;32463;48.298;11.620;2024-03-08T03:07:55;24.92;;;9.00;;
46723;SDS011;32463;48.298;11.620;2024-03-08T03:10:23;20.90;;;10.15;;
46723;SDS011;32463;48.298;11.620;2024-03-08T03:12:51;22.65;;;10.43;;
46723;SDS011;32463;48.298;11.620;2024-03-08T03:15:17;23.30;;;10.57;;
46723;SDS011;32463;48.298;11.620;2024-03-08T03:20:16;21.45;;;9.98;;
46723;SDS011;32463;48.298;11.620;2024-03-08T03:22:48;24.85;;;11.00;;
46723;SDS011;32463;48.298;11.620;2024-03-08T03:25:21;22.35;;;9.98;;
46723;SDS011;32463;48.298;11.620;2024-03-08T03:27:50;26.90;;;10.38;;
46723;SDS011;32463;48.298;11.620;2024-03-08T03:30:22;23.67;;;9.75;;
46723;SDS011;32463;48.298;11.620;2024-03-08T03:32:51;26.65;;;11.65;;
46723;SDS011;32463;48.298;11.620;2024-03-08T03:35:19;28.48;;;11.40;;
46723;SDS011;32463;48.298;11.620;2024-03-08T03:37:47;25.88;;;10.30;;
46723;SDS011;32463;48.298;11.620;2024-03-08T03:40:27;23.15;;;10.38;;
46723;SDS011;32463;48.298;11.620;2024-03-08T03:42:56;25.45;;;10.35;;
46723;SDS011;32463;48.298;11.620;2024-03-08T03:45:23;25.20;;;11.25;;
46723;SDS011;32463;48.298;11.620;2024-03-08T03:47:50;25.48;;;11.10;;
46723;SDS011;32463;48.298;11.620;2024-03-08T03:50:17;29.80;;;11.80;;
46723;SDS011;32463;48.298;11.620;2024-03-08T03:52:48;32.47;;;10.98;;
46723;SDS011;32463;48.298;11.620;2024-03-08T03:55:15;24.52;;;10.77;;
46723;SDS011;32463;48.298;11.620;2024-03-08T03:57:41;29.58;;;11.15;;
46723;SDS011;32463;48.298;11.620;2024-03-08T04:00:10;29.38;;;12.52;;
46723;SDS011;32463;48.298;11.620;2024-03-08T04:02:38;30.55;;;12.63;;
46723;SDS011;32463;48.298;11.620;2024-03-08T04:05:05;29.73;;;13.60;;
46723;SDS011;32463;48.298;11.620;2024-03-08T04:07:33;31.80;;;13.05;;
46723;SDS011;32463;48.298;11.620;2024-03-08T04:10:03;30.75;;;12.63;;
46723;SDS011;32463;48.298;11.620;2024-03-08T04:12:32;35.15;;;13.43;;
46723;SDS011;32463;48.298;11.620;2024-03-08T04:15:00;36.20;;;14.68;;
46723;SDS011;32463;48.298;11.620;2024-03-08T04:17:27;32.63;;;13.43;;
46723;SDS011;32463;48.298;11.620;2024-03-08T04:19:54;32.72;;;14.05;;
46723;SDS011;32463;48.298;11.620;2024-03-08T04:24:47;34.53;;;13.52;;
46723;SDS011;32463;48.298;11.620;2024-03-08T04:29:40;36.08;;;14.60;;
46723;SDS011;32463;48.298;11.620;2024-03-08T04:32:07;38.80;;;14.65;;
46723;SDS011;32463;48.298;11.620;2024-03-08T04:34:34;33.75;;;14.50;;
46723;SDS011;32463;48.298;11.620;2024-03-08T04:37:01;41.83;;;16.20;;
46723;SDS011;32463;48.298;11.620;2024-03-08T04:39:29;31.58;;;13.90;;
46723;SDS011;32463;48.298;11.620;2024-03-08T04:41:56;34.72;;;14.85;;
46723;SDS011;32463;48.298;11.620;2024-03-08T04:44:28;42.22;;;16.85;;
46723;SDS011;32463;48.298;11.620;2024-03-08T04:46:55;41.63;;;14.20;;
46723;SDS011;32463;48.298;11.620;2024-03-08T04:49:21;39.15;;;15.02;;
46723;SDS011;32463;48.298;11.620;2024-03-08T04:54:14;38.70;;;14.38;;
46723;SDS011;32463;48.298;11.620;2024-03-08T04:56:41;44.55;;;16.10;;
46723;SDS011;32463;48.298;11.620;2024-03-08T05:01:34;32.65;;;14.02;;
46723;SDS011;32463;48.298;11.620;2024-03-08T05:04:02;43.28;;;16.52;;
46723;SDS011;32463;48.298;11.620;2024-03-08T05:06:31;38.80;;;15.63;;
46723;SDS011;32463;48.298;11.620;2024-03-08T05:08:58;41.40;;;15.38;;
46723;SDS011;32463;48.298;11.620;2024-03-08T05:13:51;37.25;;;15.25;;
46723;SDS011;32463;48.298;11.620;2024-03-08T05:16:18;41.30;;;14.25;;
46723;SDS011;32463;48.298;11.620;2024-03-08T05:18:47;42.92;;;15.90;;
46723;SDS011;32463;48.298;11.620;2024-03-08T05:23:42;41.13;;;15.50;;
46723;SDS011;32463;48.298;11.620;2024-03-08T05:26:09;36.47;;;15.30;;
46723;SDS011;32463;48.298;11.620;2024-03-08T05:28:35;49.15;;;17.48;;
46723;SDS011;32463;48.298;11.620;2024-03-08T05:33:28;43.80;;;17.38;;
46723;SDS011;32463;48.298;11.620;2024-03-08T05:38:21;45.53;;;15.35;;
46723;SDS011;32463;48.298;11.620;2024-03-08T05:43:14;39.28;;;15.27;;
46723;SDS011;32463;48.298;11.620;2024-03-08T05:45:42;38.53;;;16.08;;
46723;SDS011;32463;48.298;11.620;2024-03-08T05:50:37;44.17;;;16.38;;
46723;SDS011;32463;48.298;11.620;2024-03-08T05:53:04;43.85;;;17.08;;
46723;SDS011;32463;48.298;11.620;2024-03-08T05:55:32;46.00;;;17.05;;
46723;SDS011;32463;48.298;11.620;2024-03-08T05:58:00;45.75;;;17.35;;
46723;SDS011;32463;48.298;11.620;2024-03-08T06:00:27;52.05;;;19.30;;
46723;SDS011;32463;48.298;11.620;2024-03-08T06:02:56;49.47;;;19.45;;
46723;SDS011;32463;48.298;11.620;2024-03-08T06:05:23;44.28;;;17.33;;
46723;SDS011;32463;48.298;11.620;2024-03-08T06:10:18;45.92;;;17.70;;
46723;SDS011;32463;48.298;11.620;2024-03-08T06:12:45;41.53;;;17.45;;
46723;SDS011;32463;48.298;11.620;2024-03-08T06:15:12;41.67;;;15.95;;
46723;SDS011;32463;48.298;11.620;2024-03-08T06:17:43;47.95;;;18.00;;
46723;SDS011;32463;48.298;11.620;2024-03-08T06:20:09;49.65;;;19.25;;
46723;SDS011;32463;48.298;11.620;2024-03-08T06:22:38;46.45;;;17.60;;
46723;SDS011;32463;48.298;11.620;2024-03-08T06:25:06;40.55;;;16.52;;
46723;SDS011;32463;48.298;11.620;2024-03-08T06:27:33;47.78;;;17.83;;
46723;SDS011;32463;48.298;11.620;2024-03-08T06:32:26;43.65;;;16.83;;
46723;SDS011;32463;48.298;11.620;2024-03-08T06:34:54;45.33;;;17.65;;
46723;SDS011;32463;48.298;11.620;2024-03-08T06:39:48;45.08;;;18.92;;
46723;SDS011;32463;48.298;11.620;2024-03-08T06:42:16;41.28;;;16.25;;
46723;SDS011;32463;48.298;11.620;2024-03-08T06:44:43;40.22;;;16.95;;
46723;SDS011;32463;48.298;11.620;2024-03-08T06:47:14;39.90;;;15.88;;
46723;SDS011;32463;48.298;11.620;2024-03-08T06:49:44;44.75;;;18.27;;
46723;SDS011;32463;48.298;11.620;2024-03-08T06:52:11;41.08;;;17.10;;
46723;SDS011;32463;48.298;11.620;2024-03-08T06:54:37;41.70;;;17.10;;
46723;SDS011;32463;48.298;11.620;2024-03-08T06:57:05;43.92;;;16.40;;
46723;SDS011;32463;48.298;11.620;2024-03-08T06:59:32;42.13;;;16.38;;
46723;SDS011;32463;48.298;11.620;2024-03-08T07:02:01;43.80;;;16.15;;
46723;SDS011;32463;48.298;11.620;2024-03-08T07:04:29;42.70;;;17.27;;
46723;SDS011;32463;48.298;11.620;2024-03-08T07:06:56;42.58;;;16.58;;
46723;SDS011;32463;48.298;11.620;2024-03-08T07:09:23;42.42;;;17.88;;
46723;SDS011;32463;48.298;11.620;2024-03-08T07:11:50;39.85;;;15.25;;
46723;SDS011;32463;48.298;11.620;2024-03-08T07:14:22;40.47;;;16.33;;
46723;SDS011;32463;48.298;11.620;2024-03-08T07:16:49;40.65;;;16.63;;
46723;SDS011;32463;48.298;11.620;2024-03-08T07:19:16;42.35;;;17.05;;
46723;SDS011;32463;48.298;11.620;2024-03-08T07:21:44;40.05;;;16.70;;
46723;SDS011;32463;48.298;11.620;2024-03-08T07:24:12;43.03;;;16.85;;
46723;SDS011;32463;48.298;11.620;2024-03-08T07:26:53;44.53;;;17.15;;
46723;SDS011;32463;48.298;11.620;2024-03-08T07:29:20;38.70;;;15.73;;
46723;SDS011;32463;48.298;11.620;2024-03-08T07:31:47;46.88;;;17.40;;
46723;SDS011;32463;48.298;11.620;2024-03-08T07:34:20;41.72;;;16.55;;
46723;SDS011;32463;48.298;11.620;2024-03-08T07:36:47;40.65;;;16.00;;
46723;SDS011;32463;48.298;11.620;2024-03-08T07:39:15;42.78;;;18.30;;
46723;SDS011;32463;48.298;11.620;2024-03-08T07:41:42;40.13;;;15.80;;
46723;SDS011;32463;48.298;11.620;2024-03-08T07:44:08;44.17;;;17.60;;
46723;SDS011;32463;48.298;11.620;2024-03-08T07:46:35;35.33;;;17.00;;
46723;SDS011;32463;48.298;11.620;2024-03-08T07:49:02;40.22;;;17.08;;
46723;SDS011;32463;48.298;11.620;2024-03-08T07:51:29;37.75;;;16.42;;
46723;SDS011;32463;48.298;11.620;2024-03-08T07:53:56;46.17;;;16.80;;
46723;SDS011;32463;48.298;11.620;2024-03-08T07:56:23;42.35;;;18.15;;
46723;SDS011;32463;48.298;11.620;2024-03-08T07:58:50;37.50;;;16.83;;
46723;SDS011;32463;48.298;11.620;2024-03-08T08:01:18;40.35;;;15.23;;
46723;SDS011;32463;48.298;11.620;2024-03-08T08:03:45;34.10;;;16.38;;
46723;SDS011;32463;48.298;11.620;2024-03-08T08:06:14;40.15;;;17.70;;
46723;SDS011;32463;48.298;11.620;2024-03-08T08:08:42;40.17;;;17.42;;
46723;SDS011;32463;48.298;11.620;2024-03-08T08:11:09;40.30;;;17.40;;
46723;SDS011;32463;48.298;11.620;2024-03-08T08:13:37;31.40;;;14.38;;
46723;SDS011;32463;48.298;11.620;2024-03-08T08:16:04;38.42;;;16.25;;
46723;SDS011;32463;48.298;11.620;2024-03-08T08:18:31;37.70;;;15.32;;
46723;SDS011;32463;48.298;11.620;2024-03-08T08:20:58;34.75;;;14.85;;
46723;SDS011;32463;48.298;11.620;2024-03-08T08:23:25;35.97;;;15.35;;
46723;SDS011;32463;48.298;11.620;2024-03-08T08:25:52;37.97;;;16.67;;
46723;SDS011;32463;48.298;11.620;2024-03-08T08:28:19;34.03;;;15.80;;
46723;SDS011;32463;48.298;11.620;2024-03-08T08:30:45;40.08;;;17.40;;
46723;SDS011;32463;48.298;11.620;2024-03-08T08:33:14;34.50;;;16.50;;
46723;SDS011;32463;48.298;11.620;2024-03-08T08:35:40;33.60;;;15.90;;
46723;SDS011;32463;48.298;11.620;2024-03-08T08:38:07;32.95;;;15.35;;
46723;SDS011;32463;48.298;11.620;2024-03-08T08:40:34;36.58;;;16.38;;
46723;SDS011;32463;48.298;11.620;2024-03-08T08:43:02;35.58;;;16.25;;
46723;SDS011;32463;48.298;11.620;2024-03-08T08:45:30;41.58;;;16.70;;
46723;SDS011;32463;48.298;11.620;2024-03-08T08:47:58;35.95;;;16.38;;
46723;SDS011;32463;48.298;11.620;2024-03-08T08:50:25;30.95;;;14.68;;
46723;SDS011;32463;48.298;11.620;2024-03-08T08:52:53;36.10;;;13.45;;
46723;SDS011;32463;48.298;11.620;2024-03-08T08:55:20;39.08;;;15.63;;
46723;SDS011;32463;48.298;11.620;2024-03-08T08:57:50;32.83;;;15.13;;
46723;SDS011;32463;48.298;11.620;2024-03-08T09:00:21;32.38;;;14.75;;
46723;SDS011;32463;48.298;11.620;2024-03-08T09:02:52;34.72;;;15.00;;
46723;SDS011;32463;48.298;11.620;2024-03-08T09:05:20;33.47;;;14.73;;
46723;SDS011;32463;48.298;11.620;2024-03-08T09:07:49;33.15;;;14.48;;
46723;SDS011;32463;48.298;11.620;2024-03-08T09:10:16;33.25;;;13.85;;
46723;SDS011;32463;48.298;11.620;2024-03-08T09:12:43;32.65;;;14.63;;
46723;SDS011;32463;48.298;11.620;2024-03-08T09:15:10;32.33;;;14.10;;
46723;SDS011;32463;48.298;11.620;2024-03-08T09:17:37;31.23;;;14.60;;
46723;SDS011;32463;48.298;11.620;2024-03-08T09:20:06;34.88;;;15.00;;
46723;SDS011;32463;48.298;11.620;2024-03-08T09:22:34;27.70;;;13.65;;
46723;SDS011;32463;48.298;11.620;2024-03-08T09:25:01;32.30;;;13.45;;
46723;SDS011;32463;48.298;11.620;2024-03-08T09:27:30;30.13;;;13.60;;
46723;SDS011;32463;48.298;11.620;2024-03-08T09:29:56;32.78;;;14.45;;
46723;SDS011;32463;48.298;11.620;2024-03-08T09:32:23;31.55;;;13.93;;
46723;SDS011;32463;48.298;11.620;2024-03-08T09:34:49;32.83;;;15.27;;
46723;SDS011;32463;48.298;11.620;2024-03-08T09:37:16;28.98;;;12.77;;
46723;SDS011;32463;48.298;11.620;2024-03-08T09:39:44;28.45;;;12.77;;
46723;SDS011;32463;48.298;11.620;2024-03-08T09:42:11;33.85;;;13.70;;
46723;SDS011;32463;48.298;11.620;2024-03-08T09:44:39;28.65;;;13.32;;
46723;SDS011;32463;48.298;11.620;2024-03-08T09:47:11;26.98;;;13.45;;
46723;SDS011;32463;48.298;11.620;2024-03-08T09:49:40;24.48;;;12.65;;
46723;SDS011;32463;48.298;11.620;2024-03-08T09:52:08;28.88;;;14.52;;
46723;SDS011;32463;48.298;11.620;2024-03-08T09:54:35;27.77;;;13.30;;
46723;SDS011;32463;48.298;11.620;2024-03-08T09:57:03;29.80;;;13.30;;
46723;SDS011;32463;48.298;11.620;2024-03-08T09:59:30;31.10;;;14.30;;
46723;SDS011;32463;48.298;11.620;2024-03-08T10:02:14;26.50;;;12.20;;
46723;SDS011;32463;48.298;11.620;2024-03-08T10:04:42;31.95;;;14.85;;
46723;SDS011;32463;48.298;11.620;2024-03-08T10:07:11;28.05;;;13.50;;
46723;SDS011;32463;48.298;11.620;2024-03-08T10:09:38;25.92;;;12.60;;
46723;SDS011;32463;48.298;11.620;2024-03-08T10:12:07;28.63;;;13.02;;
46723;SDS011;32463;48.298;11.620;2024-03-08T10:14:38;26.63;;;13.02;;
46723;SDS011;32463;48.298;11.620;2024-03-08T10:17:05;32.13;;;14.20;;
46723;SDS011;32463;48.298;11.620;2024-03-08T10:19:32;30.23;;;13.27;;
46723;SDS011;32463;48.298;11.620;2024-03-08T10:21:59;27.75;;;12.98;;
46723;SDS011;32463;48.298;11.620;2024-03-08T10:24:26;29.73;;;12.30;;
46723;SDS011;32463;48.298;11.620;2024-03-08T10:26:55;28.27;;;13.35;;
46723;SDS011;32463;48.298;11.620;2024-03-08T10:29:25;25.73;;;12.63;;
46723;SDS011;32463;48.298;11.620;2024-03-08T10:31:51;24.10;;;12.20;;
46723;SDS011;32463;48.298;11.620;2024-03-08T10:34:18;27.50;;;12.95;;
46723;SDS011;32463;48.298;11.620;2024-03-08T10:36:45;25.13;;;12.88;;
46723;SDS011;32463;48.298;11.620;2024-03-08T10:39:23;26.83;;;12.60;;
46723;SDS011;32463;48.298;11.620;2024-03-08T10:42:00;21.70;;;10.88;;
46723;SDS011;32463;48.298;11.620;2024-03-08T10:52:38;23.65;;;11.02;;
46723;SDS011;32463;48.298;11.620;2024-03-08T10:55:05;21.83;;;11.60;;
46723;SDS011;32463;48.298;11.620;2024-03-08T11:00:07;23.35;;;10.65;;
46723;SDS011;32463;48.298;11.620;2024-03-08T11:02:37;24.02;;;11.63;;
46723;SDS011;32463;48.298;11.620;2024-03-08T11:05:04;22.92;;;11.80;;
46723;SDS011;32463;48.298;11.620;2024-03-08T11:07:34;21.05;;;11.02;;
46723;SDS011;32463;48.298;11.620;2024-03-08T11:10:04;21.98;;;11.20;;
46723;SDS011;32463;48.298;11.620;2024-03-08T11:12:40;21.65;;;11.25;;
46723;SDS011;32463;48.298;11.620;2024-03-08T11:15:13;21.40;;;10.90;;
46723;SDS011;32463;48.298;11.620;2024-03-08T11:17:49;20.70;;;10.68;;
46723;SDS011;32463;48.298;11.620;2024-03-08T11:20:19;25.45;;;11.43;;
46723;SDS011;32463;48.298;11.620;2024-03-08T11:22:53;21.42;;;10.90;;
46723;SDS011;32463;48.298;11.620;2024-03-08T11:28:08;24.08;;;10.77;;
46723;SDS011;32463;48.298;11.620;2024-03-08T11:30:41;22.17;;;10.55;;
46723;SDS011;32463;48.298;11.620;2024-03-08T11:33:29;20.02;;;9.43;;
46723;SDS011;32463;48.298;11.620;2024-03-08T11:38:49;18.67;;;10.75;;
46723;SDS011;32463;48.298;11.620;2024-03-08T11:41:26;22.92;;;10.35;;
46723;SDS011;32463;48.298;11.620;2024-03-08T11:44:02;18.38;;;9.70;;
46723;SDS011;32463;48.298;11.620;2024-03-08T11:46:31;18.65;;;9.07;;
46723;SDS011;32463;48.298;11.620;2024-03-08T11:48:59;18.05;;;10.18;;
46723;SDS011;32463;48.298;11.620;2024-03-08T11:51:27;15.68;;;8.60;;
46723;SDS011;32463;48.298;11.620;2024-03-08T11:53:55;18.80;;;9.20;;
46723;SDS011;32463;48.298;11.620;2024-03-08T11:56:21;18.17;;;9.55;;
46723;SDS011;32463;48.298;11.620;2024-03-08T11:58:55;17.27;;;9.38;;
46723;SDS011;32463;48.298;11.620;2024-03-08T12:01:22;19.52;;;10.07;;
46723;SDS011;32463;48.298;11.620;2024-03-08T12:03:53;20.60;;;10.25;;
46723;SDS011;32463;48.298;11.620;2024-03-08T12:06:24;19.25;;;10.32;;
46723;SDS011;32463;48.298;11.620;2024-03-08T12:08:51;20.58;;;9.90;;
46723;SDS011;32463;48.298;11.620;2024-03-08T12:11:18;17.48;;;9.68;;
46723;SDS011;32463;48.298;11.620;2024-03-08T12:13:48;19.02;;;9.60;;
46723;SDS011;32463;48.298;11.620;2024-03-08T12:16:17;18.48;;;9.18;;
46723;SDS011;32463;48.298;11.620;2024-03-08T12:18:44;17.00;;;8.27;;
46723;SDS011;32463;48.298;11.620;2024-03-08T12:21:12;15.93;;;8.82;;
46723;SDS011;32463;48.298;11.620;2024-03-08T12:23:42;16.52;;;8.20;;
46723;SDS011;32463;48.298;11.620;2024-03-08T12:26:17;15.48;;;7.75;;
46723;SDS011;32463;48.298;11.620;2024-03-08T12:28:49;13.50;;;7.70;;
46723;SDS011;32463;48.298;11.620;2024-03-08T12:31:16;13.13;;;7.53;;
46723;SDS011;32463;48.298;11.620;2024-03-08T12:33:49;10.82;;;6.57;;
46723;SDS011;32463;48.298;11.620;2024-03-08T12:36:17;14.25;;;6.78;;
46723;SDS011;32463;48.298;11.620;2024-03-08T12:38:47;14.15;;;7.43;;
46723;SDS011;32463;48.298;11.620;2024-03-08T12:41:17;14.85;;;8.63;;
46723;SDS011;32463;48.298;11.620;2024-03-08T12:43:45;15.27;;;8.32;;
46723;SDS011;32463;48.298;11.620;2024-03-08T12:46:16;13.52;;;7.47;;
46723;SDS011;32463;48.298;11.620;2024-03-08T12:48:47;13.57;;;7.22;;
46723;SDS011;32463;48.298;11.620;2024-03-08T12:51:14;13.50;;;7.75;;
46723;SDS011;32463;48.298;11.620;2024-03-08T12:53:43;15.07;;;7.95;;
46723;SDS011;32463;48.298;11.620;2024-03-08T12:56:11;13.52;;;7.40;;
46723;SDS011;32463;48.298;11.620;2024-03-08T12:58:37;11.02;;;6.60;;
46723;SDS011;32463;48.298;11.620;2024-03-08T13:01:06;11.15;;;6.65;;
46723;SDS011;32463;48.298;11.620;2024-03-08T13:03:34;10.93;;;6.43;;
46723;SDS011;32463;48.298;11.620;2024-03-08T13:06:04;10.95;;;6.65;;
46723;SDS011;32463;48.298;11.620;2024-03-08T13:08:36;13.82;;;7.10;;
46723;SDS011;32463;48.298;11.620;2024-03-08T13:11:04;13.50;;;7.25;;
46723;SDS011;32463;48.298;11.620;2024-03-08T13:13:32;10.45;;;6.40;;
46723;SDS011;32463;48.298;11.620;2024-03-08T13:16:00;10.30;;;6.32;;
46723;SDS011;32463;48.298;11.620;2024-03-08T13:18:28;12.32;;;7.03;;
46723;SDS011;32463;48.298;11.620;2024-03-08T13:20:54;11.73;;;6.40;;
46723;SDS011;32463;48.298;11.620;2024-03-08T13:23:22;12.55;;;6.95;;
46723;SDS011;32463;48.298;11.620;2024-03-08T13:25:49;10.63;;;6.72;;
46723;SDS011;32463;48.298;11.620;2024-03-08T13:28:16;10.10;;;5.97;;
46723;SDS011;32463;48.298;11.620;2024-03-08T13:30:48;12.32;;;6.63;;
46723;SDS011;32463;48.298;11.620;2024-03-08T13:33:14;12.25;;;6.97;;
46723;SDS011;32463;48.298;11.620;2024-03-08T13:35:41;11.65;;;6.85;;
46723;SDS011;32463;48.298;11.620;2024-03-08T13:38:07;14.68;;;7.10;;
46723;SDS011;32463;48.298;11.620;2024-03-08T13:40:36;12.70;;;7.32;;
46723;SDS011;32463;48.298;11.620;2024-03-08T13:43:05;12.85;;;7.40;;
46723;SDS011;32463;48.298;11.620;2024-03-08T13:45:33;13.30;;;7.43;;
46723;SDS011;32463;48.298;11.620;2024-03-08T13:48:03;13.98;;;7.53;;
46723;SDS011;32463;48.298;11.620;2024-03-08T13:50:30;13.18;;;7.70;;
46723;SDS011;32463;48.298;11.620;2024-03-08T13:52:57;14.20;;;7.13;;
46723;SDS011;32463;48.298;11.620;2024-03-08T13:55:24;12.52;;;7.72;;
46723;SDS011;32463;48.298;11.620;2024-03-08T13:57:51;17.50;;;8.98;;
46723;SDS011;32463;48.298;11.620;2024-03-08T14:00:18;12.88;;;7.47;;
46723;SDS011;32463;48.298;11.620;2024-03-08T14:02:47;12.52;;;7.57;;
46723;SDS011;32463;48.298;11.620;2024-03-08T14:05:14;13.95;;;7.32;;
46723;SDS011;32463;48.298;11.620;2024-03-08T14:07:41;15.82;;;7.00;;
46723;SDS011;32463;48.298;11.620;2024-03-08T14:10:08;12.95;;;7.70;;
46723;SDS011;32463;48.298;11.620;2024-03-08T14:12:35;12.35;;;7.22;;
46723;SDS011;32463;48.298;11.620;2024-03-08T14:15:03;12.48;;;6.70;;
46723;SDS011;32463;48.298;11.620;2024-03-08T14:17:32;11.98;;;6.50;;
46723;SDS011;32463;48.298;11.620;2024-03-08T14:19:59;12.45;;;7.22;;
46723;SDS011;32463;48.298;11.620;2024-03-08T14:22:25;11.13;;;6.50;;
46723;SDS011;32463;48.298;11.620;2024-03-08T14:24:52;11.63;;;7.00;;
46723;SDS011;32463;48.298;11.620;2024-03-08T14:27:20;13.18;;;6.95;;
46723;SDS011;32463;48.298;11.620;2024-03-08T14:29:47;13.30;;;6.55;;
46723;SDS011;32463;48.298;11.620;2024-03-08T14:32:14;11.48;;;6.20;;
46723;SDS011;32463;48.298;11.620;2024-03-08T14:34:44;12.48;;;6.75;;
46723;SDS011;32463;48.298;11.620;2024-03-08T14:37:11;12.65;;;6.50;;
46723;SDS011;32463;48.298;11.620;2024-03-08T14:39:38;14.90;;;7.18;;
46723;SDS011;32463;48.298;11.620;2024-03-08T14:42:05;14.45;;;6.88;;
46723;SDS011;32463;48.298;11.620;2024-03-08T14:44:33;15.55;;;7.18;;
46723;SDS011;32463;48.298;11.620;2024-03-08T14:47:00;12.95;;;6.68;;
46723;SDS011;32463;48.298;11.620;2024-03-08T14:49:30;17.15;;;8.15;;
46723;SDS011;32463;48.298;11.620;2024-03-08T14:51:58;15.93;;;7.50;;
46723;SDS011;32463;48.298;11.620;2024-03-08T14:54:26;13.07;;;6.57;;
46723;SDS011;32463;48.298;11.620;2024-03-08T14:56:52;14.68;;;7.57;;
46723;SDS011;32463;48.298;11.620;2024-03-08T14:59:21;14.93;;;7.40;;
46723;SDS011;32463;48.298;11.620;2024-03-08T15:01:48;14.63;;;7.18;;
46723;SDS011;32463;48.298;11.620;2024-03-08T15:04:14;17.92;;;7.18;;
46723;SDS011;32463;48.298;11.620;2024-03-08T15:06:43;14.73;;;6.57;;
46723;SDS011;32463;48.298;11.620;2024-03-08T15:09:13;11.23;;;6.07;;
46723;SDS011;32463;48.298;11.620;2024-03-08T15:11:44;13.77;;;7.07;;
46723;SDS011;32463;48.298;11.620;2024-03-08T15:14:15;15.93;;;6.63;;
46723;SDS011;32463;48.298;11.620;2024-03-08T15:16:41;13.52;;;6.60;;
46723;SDS011;32463;48.298;11.620;2024-03-08T15:19:08;21.55;;;9.27;;
46723;SDS011;32463;48.298;11.620;2024-03-08T15:21:37;13.82;;;7.35;;
46723;SDS011;32463;48.298;11.620;2024-03-08T15:24:03;15.98;;;7.15;;
46723;SDS011;32463;48.298;11.620;2024-03-08T15:26:35;14.55;;;7.13;;
46723;SDS011;32463;48.298;11.620;2024-03-08T15:29:01;12.35;;;6.10;;
46723;SDS011;32463;48.298;11.620;2024-03-08T15:31:29;13.55;;;6.82;;
46723;SDS011;32463;48.298;11.620;2024-03-08T15:33:58;14.07;;;7.15;;
46723;SDS011;32463;48.298;11.620;2024-03-08T15:36:30;16.90;;;7.30;;
46723;SDS011;32463;48.298;11.620;2024-03-08T15:38:58;13.65;;;6.95;;
46723;SDS011;32463;48.298;11.620;2024-03-08T15:41:27;14.65;;;6.47;;
46723;SDS011;32463;48.298;11.620;2024-03-08T15:43:54;15.90;;;7.18;;
46723;SDS011;32463;48.298;11.620;2024-03-08T15:46:22;14.65;;;7.50;;